sensor_id;sensor_type;location;lat;lon;timestamp;pressure;altitude;pressure_sealevel;temperature;humidity
12636;BME280;6383;50.830;7.210;2022-08-02T00:00:51;101123.94;;;22.03;61.23
12636;BME280;6383;50.830;7.210;2022-08-02T00:03:23;101112.84;;;22.03;60.26
12636;BME280;6383;50.830;7.210;2022-08-02T00:05:52;101116.41;;;22.04;60.28
12636;BME280;6383;50.830;7.210;2022-08-02T00:08:21;101116.41;;;22.04;60.23
12636;BME280;6383;50.830;7.210;2022-08-02T00:10:50;101121.88;;;22.00;60.84
12636;BME280;6383;50.830;7.210;2022-08-02T00:13:21;101122.56;;;21.97;60.64
12636;BME280;6383;50.830;7.210;2022-08-02T00:15:50;101125.34;;;21.97;60.93
12636;BME280;6383;50.830;7.210;2022-08-02T00:18:19;101121.72;;;21.93;60.66
12636;BME280;6383;50.830;7.210;2022-08-02T00:20:48;101127.63;;;21.92;60.05
12636;BME280;6383;50.830;7.210;2022-08-02T00:23:18;101117.34;;;21.92;59.49
12636;BME280;6383;50.830;7.210;2022-08-02T00:25:47;101113.75;;;21.92;60.14
12636;BME280;6383;50.830;7.210;2022-08-02T00:28:16;101121.72;;;21.93;60.70
12636;BME280;6383;50.830;7.210;2022-08-02T00:30:47;101117.34;;;21.92;60.10
12636;BME280;6383;50.830;7.210;2022-08-02T00:33:16;101118.06;;;21.89;60.13
12636;BME280;6383;50.830;7.210;2022-08-02T00:35:45;101118.41;;;21.88;59.85
12636;BME280;6383;50.830;7.210;2022-08-02T00:38:15;101116.38;;;21.85;60.76
12636;BME280;6383;50.830;7.210;2022-08-02T00:40:46;101125.41;;;21.81;61.15
12636;BME280;6383;50.830;7.210;2022-08-02T00:43:15;101122.94;;;21.76;60.82
12636;BME280;6383;50.830;7.210;2022-08-02T00:45:46;101123.28;;;21.75;61.06
12636;BME280;6383;50.830;7.210;2022-08-02T00:48:15;101128.38;;;21.73;61.69
12636;BME280;6383;50.830;7.210;2022-08-02T00:50:45;101129.56;;;21.72;61.24
12636;BME280;6383;50.830;7.210;2022-08-02T00:53:14;101125.53;;;21.69;62.34
12636;BME280;6383;50.830;7.210;2022-08-02T00:55:43;101123.13;;;21.68;61.71
12636;BME280;6383;50.830;7.210;2022-08-02T00:58:12;101124.66;;;21.65;61.53
12636;BME280;6383;50.830;7.210;2022-08-02T01:00:41;101119.50;;;21.64;61.38
12636;BME280;6383;50.830;7.210;2022-08-02T01:03:12;101116.28;;;21.62;61.47
12636;BME280;6383;50.830;7.210;2022-08-02T01:05:41;101118.59;;;21.60;61.35
12636;BME280;6383;50.830;7.210;2022-08-02T01:08:10;101116.19;;;21.58;60.92
12636;BME280;6383;50.830;7.210;2022-08-02T01:10:40;101117.34;;;21.57;60.37
12636;BME280;6383;50.830;7.210;2022-08-02T01:13:09;101112.59;;;21.58;61.09
12636;BME280;6383;50.830;7.210;2022-08-02T01:15:43;101107.06;;;21.58;61.16
12636;BME280;6383;50.830;7.210;2022-08-02T01:18:18;101113.78;;;21.57;61.46
12636;BME280;6383;50.830;7.210;2022-08-02T01:21:17;101112.88;;;21.53;60.74
12636;BME280;6383;50.830;7.210;2022-08-02T01:24:13;101113.63;;;21.50;60.16
12636;BME280;6383;50.830;7.210;2022-08-02T01:26:49;101108.09;;;21.50;60.14
12636;BME280;6383;50.830;7.210;2022-08-02T01:29:25;101113.97;;;21.48;60.93
12636;BME280;6383;50.830;7.210;2022-08-02T01:32:03;101108.81;;;21.46;60.67
12636;BME280;6383;50.830;7.210;2022-08-02T01:34:36;101108.34;;;21.44;61.33
12636;BME280;6383;50.830;7.210;2022-08-02T01:37:12;101115.78;;;21.40;61.40
12636;BME280;6383;50.830;7.210;2022-08-02T01:39:43;101108.63;;;21.39;61.34
12636;BME280;6383;50.830;7.210;2022-08-02T01:42:15;101115.31;;;21.38;61.39
12636;BME280;6383;50.830;7.210;2022-08-02T01:44:48;101118.09;;;21.38;61.16
12636;BME280;6383;50.830;7.210;2022-08-02T01:47:21;101114.47;;;21.34;61.40
12636;BME280;6383;50.830;7.210;2022-08-02T01:49:56;101118.38;;;21.33;61.61
12636;BME280;6383;50.830;7.210;2022-08-02T01:52:28;101121.50;;;21.32;61.50
12636;BME280;6383;50.830;7.210;2022-08-02T01:55:02;101120.72;;;21.31;60.84
12636;BME280;6383;50.830;7.210;2022-08-02T01:57:33;101102.03;;;21.28;60.91
12636;BME280;6383;50.830;7.210;2022-08-02T02:00:07;101105.97;;;21.27;60.47
12636;BME280;6383;50.830;7.210;2022-08-02T02:02:39;101103.09;;;21.24;60.23
12636;BME280;6383;50.830;7.210;2022-08-02T02:05:13;101101.09;;;21.21;60.36
12636;BME280;6383;50.830;7.210;2022-08-02T02:07:45;101109.38;;;21.21;60.67
12636;BME280;6383;50.830;7.210;2022-08-02T02:10:18;101102.13;;;21.16;61.09
12636;BME280;6383;50.830;7.210;2022-08-02T02:12:49;101097.75;;;21.15;61.21
12636;BME280;6383;50.830;7.210;2022-08-02T02:15:21;101099.72;;;21.15;61.76
12636;BME280;6383;50.830;7.210;2022-08-02T02:17:52;101101.22;;;21.12;61.40
12636;BME280;6383;50.830;7.210;2022-08-02T02:20:22;101103.09;;;21.08;61.83
12636;BME280;6383;50.830;7.210;2022-08-02T02:22:52;101097.94;;;21.06;61.62
12636;BME280;6383;50.830;7.210;2022-08-02T02:25:22;101106.59;;;21.05;62.52
12636;BME280;6383;50.830;7.210;2022-08-02T02:27:55;101099.91;;;21.06;62.24
12636;BME280;6383;50.830;7.210;2022-08-02T02:30:28;101093.13;;;21.03;62.29
12636;BME280;6383;50.830;7.210;2022-08-02T02:33:00;101088.75;;;21.02;62.92
12636;BME280;6383;50.830;7.210;2022-08-02T02:35:31;101085.16;;;21.02;62.80
12636;BME280;6383;50.830;7.210;2022-08-02T02:38:07;101078.03;;;21.01;62.55
12636;BME280;6383;50.830;7.210;2022-08-02T02:40:38;101077.22;;;21.00;62.41
12636;BME280;6383;50.830;7.210;2022-08-02T02:43:08;101079.53;;;20.98;62.46
12636;BME280;6383;50.830;7.210;2022-08-02T02:45:42;101083.13;;;20.99;62.48
12636;BME280;6383;50.830;7.210;2022-08-02T02:48:13;101077.94;;;20.97;62.48
12636;BME280;6383;50.830;7.210;2022-08-02T02:50:43;101081.50;;;20.98;62.34
12636;BME280;6383;50.830;7.210;2022-08-02T02:53:15;101065.59;;;20.95;62.20
12636;BME280;6383;50.830;7.210;2022-08-02T02:55:47;101068.38;;;20.95;62.89
12636;BME280;6383;50.830;7.210;2022-08-02T02:58:16;101077.84;;;20.94;62.81
12636;BME280;6383;50.830;7.210;2022-08-02T03:00:47;101074.25;;;20.93;62.88
12636;BME280;6383;50.830;7.210;2022-08-02T03:03:34;101076.63;;;20.91;62.42
12636;BME280;6383;50.830;7.210;2022-08-02T03:06:05;101074.19;;;20.90;62.88
12636;BME280;6383;50.830;7.210;2022-08-02T03:08:34;101080.44;;;20.87;63.06
12636;BME280;6383;50.830;7.210;2022-08-02T03:11:03;101082.75;;;20.85;62.29
12636;BME280;6383;50.830;7.210;2022-08-02T03:13:33;101080.34;;;20.83;62.69
12636;BME280;6383;50.830;7.210;2022-08-02T03:16:04;101073.56;;;20.81;63.26
12636;BME280;6383;50.830;7.210;2022-08-02T03:18:35;101073.91;;;20.79;62.56
12636;BME280;6383;50.830;7.210;2022-08-02T03:21:07;101069.13;;;20.76;62.17
12636;BME280;6383;50.830;7.210;2022-08-02T03:23:36;101076.63;;;20.75;62.33
12636;BME280;6383;50.830;7.210;2022-08-02T03:26:07;101075.00;;;20.74;62.45
12636;BME280;6383;50.830;7.210;2022-08-02T03:31:07;101063.03;;;20.70;61.80
12636;BME280;6383;50.830;7.210;2022-08-02T03:33:36;101076.88;;;20.70;61.34
12636;BME280;6383;50.830;7.210;2022-08-02T03:36:09;101070.88;;;20.68;61.68
12636;BME280;6383;50.830;7.210;2022-08-02T03:38:40;101063.28;;;20.65;62.16
12636;BME280;6383;50.830;7.210;2022-08-02T03:41:12;101058.91;;;20.64;61.99
12636;BME280;6383;50.830;7.210;2022-08-02T03:43:44;101062.41;;;20.61;61.68
12636;BME280;6383;50.830;7.210;2022-08-02T03:46:16;101071.78;;;20.57;61.49
12636;BME280;6383;50.830;7.210;2022-08-02T03:48:46;101071.31;;;20.55;61.81
12636;BME280;6383;50.830;7.210;2022-08-02T03:51:16;101070.50;;;20.54;61.83
12636;BME280;6383;50.830;7.210;2022-08-02T03:53:46;101069.25;;;20.52;62.19
12636;BME280;6383;50.830;7.210;2022-08-02T03:56:16;101066.84;;;20.50;61.85
12636;BME280;6383;50.830;7.210;2022-08-02T03:58:45;101067.19;;;20.49;61.76
12636;BME280;6383;50.830;7.210;2022-08-02T04:01:15;101065.16;;;20.46;62.09
12636;BME280;6383;50.830;7.210;2022-08-02T04:03:45;101057.69;;;20.46;61.95
12636;BME280;6383;50.830;7.210;2022-08-02T04:06:16;101055.63;;;20.43;61.51
12636;BME280;6383;50.830;7.210;2022-08-02T04:08:45;101060.69;;;20.41;61.81
12636;BME280;6383;50.830;7.210;2022-08-02T04:11:14;101056.66;;;20.38;62.00
12636;BME280;6383;50.830;7.210;2022-08-02T04:14:01;101059.78;;;20.37;62.23
12636;BME280;6383;50.830;7.210;2022-08-02T04:16:38;101058.97;;;20.36;62.13
12636;BME280;6383;50.830;7.210;2022-08-02T04:19:11;101064.16;;;20.38;61.93
12636;BME280;6383;50.830;7.210;2022-08-02T04:21:43;101063.72;;;20.36;62.00
12636;BME280;6383;50.830;7.210;2022-08-02T04:24:15;101068.75;;;20.34;62.40
12636;BME280;6383;50.830;7.210;2022-08-02T04:26:48;101066.72;;;20.31;62.66
12636;BME280;6383;50.830;7.210;2022-08-02T04:29:18;101067.88;;;20.30;62.21
12636;BME280;6383;50.830;7.210;2022-08-02T04:31:48;101068.69;;;20.30;62.79
12636;BME280;6383;50.830;7.210;2022-08-02T04:34:18;101070.63;;;20.30;62.75
12636;BME280;6383;50.830;7.210;2022-08-02T04:36:47;101071.44;;;20.30;62.60
12636;BME280;6383;50.830;7.210;2022-08-02T04:39:18;101075.00;;;20.31;62.31
12636;BME280;6383;50.830;7.210;2022-08-02T04:41:47;101074.22;;;20.30;62.52
12636;BME280;6383;50.830;7.210;2022-08-02T04:44:16;101080.53;;;20.31;62.08
12636;BME280;6383;50.830;7.210;2022-08-02T04:46:45;101082.16;;;20.32;62.05
12636;BME280;6383;50.830;7.210;2022-08-02T04:49:16;101081.78;;;20.33;62.16
12636;BME280;6383;50.830;7.210;2022-08-02T04:51:45;101086.16;;;20.34;62.28
12636;BME280;6383;50.830;7.210;2022-08-02T04:54:14;101093.63;;;20.34;62.27
12636;BME280;6383;50.830;7.210;2022-08-02T04:56:43;101082.56;;;20.34;62.77
12636;BME280;6383;50.830;7.210;2022-08-02T04:59:12;101088.91;;;20.34;62.72
12636;BME280;6383;50.830;7.210;2022-08-02T05:01:41;101095.25;;;20.35;62.57
12636;BME280;6383;50.830;7.210;2022-08-02T05:04:11;101090.06;;;20.33;62.77
12636;BME280;6383;50.830;7.210;2022-08-02T05:06:41;101084.19;;;20.35;62.13
12636;BME280;6383;50.830;7.210;2022-08-02T05:09:10;101080.28;;;20.36;62.34
12636;BME280;6383;50.830;7.210;2022-08-02T05:11:40;101085.94;;;20.39;62.39
12636;BME280;6383;50.830;7.210;2022-08-02T05:14:09;101088.34;;;20.41;62.54
12636;BME280;6383;50.830;7.210;2022-08-02T05:16:38;101085.56;;;20.41;62.76
12636;BME280;6383;50.830;7.210;2022-08-02T05:19:07;101092.25;;;20.40;62.72
12636;BME280;6383;50.830;7.210;2022-08-02T05:21:36;101089.16;;;20.41;62.64
12636;BME280;6383;50.830;7.210;2022-08-02T05:24:08;101089.94;;;20.42;63.03
12636;BME280;6383;50.830;7.210;2022-08-02T05:26:37;101099.06;;;20.42;63.13
12636;BME280;6383;50.830;7.210;2022-08-02T05:29:06;101095.94;;;20.44;62.79
12636;BME280;6383;50.830;7.210;2022-08-02T05:31:35;101108.59;;;20.45;62.66
12636;BME280;6383;50.830;7.210;2022-08-02T05:34:04;101110.63;;;20.48;64.17
12636;BME280;6383;50.830;7.210;2022-08-02T05:36:33;101117.44;;;20.51;64.06
12636;BME280;6383;50.830;7.210;2022-08-02T05:39:01;101111.19;;;20.54;64.33
12636;BME280;6383;50.830;7.210;2022-08-02T05:41:30;101104.97;;;20.57;64.84
12636;BME280;6383;50.830;7.210;2022-08-02T05:43:59;101100.69;;;20.59;64.79
12636;BME280;6383;50.830;7.210;2022-08-02T05:46:28;101101.13;;;20.61;64.71
12636;BME280;6383;50.830;7.210;2022-08-02T05:49:00;101092.91;;;20.65;65.12
12636;BME280;6383;50.830;7.210;2022-08-02T05:51:34;101099.34;;;20.69;65.19
12636;BME280;6383;50.830;7.210;2022-08-02T05:54:11;101092.75;;;20.73;65.35
12636;BME280;6383;50.830;7.210;2022-08-02T05:56:50;101101.16;;;20.77;65.66
12636;BME280;6383;50.830;7.210;2022-08-02T05:59:26;101105.59;;;20.82;65.40
12636;BME280;6383;50.830;7.210;2022-08-02T06:02:03;101102.13;;;20.85;66.59
12636;BME280;6383;50.830;7.210;2022-08-02T06:04:35;101089.19;;;20.89;66.65
12636;BME280;6383;50.830;7.210;2022-08-02T06:07:11;101098.00;;;20.94;66.68
12636;BME280;6383;50.830;7.210;2022-08-02T06:09:42;101096.16;;;20.98;66.39
12636;BME280;6383;50.830;7.210;2022-08-02T06:12:15;101102.94;;;21.01;65.95
12636;BME280;6383;50.830;7.210;2022-08-02T06:14:46;101095.53;;;21.05;66.41
12636;BME280;6383;50.830;7.210;2022-08-02T06:17:17;101100.78;;;21.10;66.50
12636;BME280;6383;50.830;7.210;2022-08-02T06:19:47;101098.91;;;21.14;66.35
12636;BME280;6383;50.830;7.210;2022-08-02T06:22:17;101101.88;;;21.21;66.21
12636;BME280;6383;50.830;7.210;2022-08-02T06:24:49;101090.97;;;21.28;66.01
12636;BME280;6383;50.830;7.210;2022-08-02T06:27:20;101095.06;;;21.34;66.72
12636;BME280;6383;50.830;7.210;2022-08-02T06:29:50;101089.31;;;21.43;66.14
12636;BME280;6383;50.830;7.210;2022-08-02T06:32:21;101091.47;;;21.50;66.17
12636;BME280;6383;50.830;7.210;2022-08-02T06:34:50;101098.75;;;21.58;65.90
12636;BME280;6383;50.830;7.210;2022-08-02T06:37:26;101087.84;;;21.65;66.93
12636;BME280;6383;50.830;7.210;2022-08-02T06:40:00;101078.06;;;21.71;66.58
12636;BME280;6383;50.830;7.210;2022-08-02T06:42:36;101081.38;;;21.76;65.46
12636;BME280;6383;50.830;7.210;2022-08-02T06:45:11;101085.44;;;21.82;65.84
12636;BME280;6383;50.830;7.210;2022-08-02T06:47:40;101080.06;;;21.90;65.98
12636;BME280;6383;50.830;7.210;2022-08-02T06:50:10;101067.94;;;21.98;66.25
12636;BME280;6383;50.830;7.210;2022-08-02T06:52:39;101078.41;;;22.04;65.60
12636;BME280;6383;50.830;7.210;2022-08-02T06:55:09;101077.38;;;22.12;64.94
12636;BME280;6383;50.830;7.210;2022-08-02T06:57:39;101075.91;;;22.19;65.71
12636;BME280;6383;50.830;7.210;2022-08-02T07:00:09;101074.88;;;22.27;65.66
12636;BME280;6383;50.830;7.210;2022-08-02T07:02:39;101078.97;;;22.33;64.12
12636;BME280;6383;50.830;7.210;2022-08-02T07:05:09;101074.38;;;22.40;65.32
12636;BME280;6383;50.830;7.210;2022-08-02T07:07:38;101079.22;;;22.47;65.04
12636;BME280;6383;50.830;7.210;2022-08-02T07:10:08;101096.00;;;22.54;64.51
12636;BME280;6383;50.830;7.210;2022-08-02T07:12:38;101086.56;;;22.59;64.46
12636;BME280;6383;50.830;7.210;2022-08-02T07:15:08;101082.69;;;22.63;63.57
12636;BME280;6383;50.830;7.210;2022-08-02T07:17:39;101085.97;;;22.69;63.14
12636;BME280;6383;50.830;7.210;2022-08-02T07:20:08;101080.91;;;22.74;63.44
12636;BME280;6383;50.830;7.210;2022-08-02T07:22:38;101086.97;;;22.80;61.79
12636;BME280;6383;50.830;7.210;2022-08-02T07:25:08;101095.41;;;22.87;61.85
12636;BME280;6383;50.830;7.210;2022-08-02T07:27:38;101088.03;;;22.95;61.60
12636;BME280;6383;50.830;7.210;2022-08-02T07:30:09;101082.19;;;23.03;61.40
12636;BME280;6383;50.830;7.210;2022-08-02T07:32:38;101073.19;;;23.10;61.34
12636;BME280;6383;50.830;7.210;2022-08-02T07:35:08;101093.16;;;23.19;60.79
12636;BME280;6383;50.830;7.210;2022-08-02T07:37:37;101075.81;;;23.26;61.40
12636;BME280;6383;50.830;7.210;2022-08-02T07:40:12;101076.72;;;23.33;60.40
12636;BME280;6383;50.830;7.210;2022-08-02T07:42:43;101073.31;;;23.43;61.12
12636;BME280;6383;50.830;7.210;2022-08-02T07:45:13;101075.75;;;23.48;59.13
12636;BME280;6383;50.830;7.210;2022-08-02T07:47:43;101083.78;;;23.53;58.72
12636;BME280;6383;50.830;7.210;2022-08-02T07:50:14;101078.31;;;23.61;59.42
12636;BME280;6383;50.830;7.210;2022-08-02T07:52:44;101079.59;;;23.67;59.52
12636;BME280;6383;50.830;7.210;2022-08-02T07:55:15;101080.53;;;23.74;57.41
12636;BME280;6383;50.830;7.210;2022-08-02T07:57:47;101073.44;;;23.80;58.52
12636;BME280;6383;50.830;7.210;2022-08-02T08:00:16;101074.34;;;23.88;57.34
12636;BME280;6383;50.830;7.210;2022-08-02T08:02:46;101074.41;;;23.95;57.01
12636;BME280;6383;50.830;7.210;2022-08-02T08:05:16;101068.94;;;24.02;57.40
12636;BME280;6383;50.830;7.210;2022-08-02T08:07:48;101067.03;;;24.10;57.80
12636;BME280;6383;50.830;7.210;2022-08-02T08:10:24;101065.16;;;24.17;57.38
12636;BME280;6383;50.830;7.210;2022-08-02T08:16:19;101073.25;;;24.30;55.87
12636;BME280;6383;50.830;7.210;2022-08-02T08:18:48;101068.13;;;24.35;54.94
12636;BME280;6383;50.830;7.210;2022-08-02T08:21:18;101067.00;;;24.40;54.31
12636;BME280;6383;50.830;7.210;2022-08-02T08:23:52;101057.50;;;24.44;54.87
12636;BME280;6383;50.830;7.210;2022-08-02T08:26:21;101052.78;;;24.52;55.19
12636;BME280;6383;50.830;7.210;2022-08-02T08:28:55;101056.84;;;24.58;55.67
12636;BME280;6383;50.830;7.210;2022-08-02T08:31:29;101044.94;;;24.65;55.77
12636;BME280;6383;50.830;7.210;2022-08-02T08:34:04;101050.59;;;24.72;54.27
12636;BME280;6383;50.830;7.210;2022-08-02T08:36:32;101045.88;;;24.79;53.69
12636;BME280;6383;50.830;7.210;2022-08-02T08:39:03;101039.81;;;24.26;54.90
12636;BME280;6383;50.830;7.210;2022-08-02T08:41:37;101040.34;;;24.02;56.61
12636;BME280;6383;50.830;7.210;2022-08-02T08:44:31;101044.06;;;23.83;57.58
12636;BME280;6383;50.830;7.210;2022-08-02T08:47:37;101038.28;;;23.65;57.49
12636;BME280;6383;50.830;7.210;2022-08-02T08:50:48;101049.34;;;23.58;58.56
12636;BME280;6383;50.830;7.210;2022-08-02T08:53:24;101041.38;;;23.57;57.23
12636;BME280;6383;50.830;7.210;2022-08-02T08:55:53;101050.50;;;23.57;56.30
12636;BME280;6383;50.830;7.210;2022-08-02T08:58:27;101038.59;;;23.57;56.80
12636;BME280;6383;50.830;7.210;2022-08-02T09:01:27;101033.41;;;23.55;57.10
12636;BME280;6383;50.830;7.210;2022-08-02T09:03:59;101030.69;;;23.59;56.99
12636;BME280;6383;50.830;7.210;2022-08-02T09:06:31;101024.34;;;23.62;56.16
12636;BME280;6383;50.830;7.210;2022-08-02T09:09:00;101022.00;;;23.64;55.98
12636;BME280;6383;50.830;7.210;2022-08-02T09:11:35;101020.06;;;23.68;56.13
12636;BME280;6383;50.830;7.210;2022-08-02T09:14:03;101019.31;;;23.71;56.13
12636;BME280;6383;50.830;7.210;2022-08-02T09:16:32;101016.19;;;23.76;57.12
12636;BME280;6383;50.830;7.210;2022-08-02T09:19:16;101015.00;;;23.77;56.93
12636;BME280;6383;50.830;7.210;2022-08-02T09:21:47;101012.38;;;23.87;56.51
12636;BME280;6383;50.830;7.210;2022-08-02T09:24:18;101012.00;;;23.92;56.19
12636;BME280;6383;50.830;7.210;2022-08-02T09:26:49;101015.25;;;23.98;55.98
12636;BME280;6383;50.830;7.210;2022-08-02T09:29:21;101017.31;;;24.05;55.59
12636;BME280;6383;50.830;7.210;2022-08-02T09:31:51;101002.28;;;24.09;55.33
12636;BME280;6383;50.830;7.210;2022-08-02T09:34:44;101012.59;;;24.09;54.93
12636;BME280;6383;50.830;7.210;2022-08-02T09:37:26;101006.28;;;24.12;55.45
12636;BME280;6383;50.830;7.210;2022-08-02T09:39:57;100997.97;;;24.19;54.38
12636;BME280;6383;50.830;7.210;2022-08-02T09:42:27;100994.53;;;24.25;54.45
12636;BME280;6383;50.830;7.210;2022-08-02T09:44:58;101004.50;;;24.30;54.82
12636;BME280;6383;50.830;7.210;2022-08-02T09:47:28;101003.34;;;24.35;54.27
12636;BME280;6383;50.830;7.210;2022-08-02T09:49:59;101003.38;;;24.38;54.24
12636;BME280;6383;50.830;7.210;2022-08-02T09:52:29;101010.97;;;24.41;54.83
12636;BME280;6383;50.830;7.210;2022-08-02T09:55:02;101008.22;;;24.45;55.23
12636;BME280;6383;50.830;7.210;2022-08-02T09:57:30;101005.06;;;24.50;54.24
12636;BME280;6383;50.830;7.210;2022-08-02T10:00:07;101006.28;;;24.52;54.59
12636;BME280;6383;50.830;7.210;2022-08-02T10:02:37;101005.53;;;24.55;54.22
12636;BME280;6383;50.830;7.210;2022-08-02T10:05:09;101003.97;;;24.58;53.93
12636;BME280;6383;50.830;7.210;2022-08-02T10:07:38;100997.63;;;24.61;53.07
12636;BME280;6383;50.830;7.210;2022-08-02T10:10:08;100996.84;;;24.64;52.71
12636;BME280;6383;50.830;7.210;2022-08-02T10:12:37;100994.06;;;24.64;52.69
12636;BME280;6383;50.830;7.210;2022-08-02T10:15:08;100994.09;;;24.68;52.66
12636;BME280;6383;50.830;7.210;2022-08-02T10:17:37;100988.56;;;24.71;52.19
12636;BME280;6383;50.830;7.210;2022-08-02T10:20:09;100977.44;;;24.75;53.33
12636;BME280;6383;50.830;7.210;2022-08-02T10:22:39;100974.66;;;24.78;53.18
12636;BME280;6383;50.830;7.210;2022-08-02T10:25:09;100973.09;;;24.81;52.53
12636;BME280;6383;50.830;7.210;2022-08-02T10:27:39;100962.00;;;24.84;51.85
12636;BME280;6383;50.830;7.210;2022-08-02T10:30:10;100970.78;;;24.90;52.52
12636;BME280;6383;50.830;7.210;2022-08-02T10:32:42;100974.44;;;24.98;51.47
12636;BME280;6383;50.830;7.210;2022-08-02T10:35:16;100973.28;;;25.02;51.13
12636;BME280;6383;50.830;7.210;2022-08-02T10:37:49;100964.16;;;25.09;50.43
12636;BME280;6383;50.830;7.210;2022-08-02T10:40:19;100968.16;;;25.11;50.57
12636;BME280;6383;50.830;7.210;2022-08-02T10:42:56;100956.63;;;25.13;50.24
12636;BME280;6383;50.830;7.210;2022-08-02T10:45:27;100954.25;;;25.15;50.52
12636;BME280;6383;50.830;7.210;2022-08-02T10:47:58;100953.09;;;25.19;50.60
12636;BME280;6383;50.830;7.210;2022-08-02T10:50:55;100955.47;;;25.17;50.33
12636;BME280;6383;50.830;7.210;2022-08-02T10:53:26;100962.69;;;25.29;49.62
12636;BME280;6383;50.830;7.210;2022-08-02T10:55:58;100953.56;;;25.36;48.29
12636;BME280;6383;50.830;7.210;2022-08-02T10:58:29;100950.38;;;25.41;48.38
12636;BME280;6383;50.830;7.210;2022-08-02T11:01:03;100964.34;;;25.44;48.30
12636;BME280;6383;50.830;7.210;2022-08-02T11:03:43;100957.97;;;25.44;48.28
12636;BME280;6383;50.830;7.210;2022-08-02T11:06:14;100958.81;;;25.51;48.06
12636;BME280;6383;50.830;7.210;2022-08-02T11:08:43;100945.66;;;25.55;47.92
12636;BME280;6383;50.830;7.210;2022-08-02T11:11:16;100935.78;;;25.61;47.48
12636;BME280;6383;50.830;7.210;2022-08-02T11:13:58;100946.16;;;25.64;48.13
12636;BME280;6383;50.830;7.210;2022-08-02T11:17:04;100943.34;;;25.72;48.32
12636;BME280;6383;50.830;7.210;2022-08-02T11:19:33;100939.03;;;25.81;47.39
12636;BME280;6383;50.830;7.210;2022-08-02T11:22:05;100931.84;;;25.91;46.91
12636;BME280;6383;50.830;7.210;2022-08-02T11:24:37;100935.44;;;25.98;45.88
12636;BME280;6383;50.830;7.210;2022-08-02T11:27:07;100934.69;;;26.09;47.37
12636;BME280;6383;50.830;7.210;2022-08-02T11:29:38;100926.69;;;26.14;46.55
12636;BME280;6383;50.830;7.210;2022-08-02T11:32:14;100939.84;;;26.17;46.17
12636;BME280;6383;50.830;7.210;2022-08-02T11:34:47;100937.47;;;26.23;46.06
12636;BME280;6383;50.830;7.210;2022-08-02T11:37:28;100931.09;;;26.22;45.81
12636;BME280;6383;50.830;7.210;2022-08-02T11:39:57;100926.72;;;26.28;45.34
12636;BME280;6383;50.830;7.210;2022-08-02T11:42:30;100934.31;;;26.35;45.28
12636;BME280;6383;50.830;7.210;2022-08-02T11:45:00;100929.13;;;26.37;43.97
12636;BME280;6383;50.830;7.210;2022-08-02T11:47:30;100918.75;;;26.45;42.94
12636;BME280;6383;50.830;7.210;2022-08-02T11:50:04;100917.56;;;26.53;43.00
12636;BME280;6383;50.830;7.210;2022-08-02T11:52:35;100922.72;;;26.61;43.27
12636;BME280;6383;50.830;7.210;2022-08-02T11:55:04;100919.53;;;26.70;42.33
12636;BME280;6383;50.830;7.210;2022-08-02T11:57:33;100915.13;;;26.76;41.62
12636;BME280;6383;50.830;7.210;2022-08-02T12:00:02;100912.72;;;26.78;41.28
12636;BME280;6383;50.830;7.210;2022-08-02T12:02:31;100918.31;;;26.82;42.34
12636;BME280;6383;50.830;7.210;2022-08-02T12:05:04;100920.31;;;26.85;42.75
12636;BME280;6383;50.830;7.210;2022-08-02T12:07:36;100915.09;;;26.87;41.60
12636;BME280;6383;50.830;7.210;2022-08-02T12:10:07;100917.91;;;26.94;42.25
12636;BME280;6383;50.830;7.210;2022-08-02T12:12:48;100921.50;;;26.98;41.97
12636;BME280;6383;50.830;7.210;2022-08-02T12:15:32;100925.84;;;27.02;41.52
12636;BME280;6383;50.830;7.210;2022-08-02T12:18:01;100918.66;;;27.09;40.67
12636;BME280;6383;50.830;7.210;2022-08-02T12:20:48;100917.47;;;27.10;40.35
12636;BME280;6383;50.830;7.210;2022-08-02T12:23:18;100916.66;;;27.13;40.48
12636;BME280;6383;50.830;7.210;2022-08-02T12:25:59;100920.66;;;27.12;40.74
12636;BME280;6383;50.830;7.210;2022-08-02T12:28:32;100914.25;;;27.15;40.41
12636;BME280;6383;50.830;7.210;2022-08-02T12:31:01;100908.25;;;27.16;38.89
12636;BME280;6383;50.830;7.210;2022-08-02T12:33:44;100906.25;;;27.17;39.53
12636;BME280;6383;50.830;7.210;2022-08-02T12:36:14;100911.81;;;27.24;39.51
12636;BME280;6383;50.830;7.210;2022-08-02T12:38:52;100911.03;;;27.23;39.75
12636;BME280;6383;50.830;7.210;2022-08-02T12:41:21;100904.63;;;27.26;41.03
12636;BME280;6383;50.830;7.210;2022-08-02T12:43:51;100895.44;;;27.29;39.83
12636;BME280;6383;50.830;7.210;2022-08-02T12:46:22;100888.59;;;27.34;40.13
12636;BME280;6383;50.830;7.210;2022-08-02T12:48:51;100894.19;;;27.34;39.20
12636;BME280;6383;50.830;7.210;2022-08-02T12:51:22;100886.19;;;27.36;39.37
12636;BME280;6383;50.830;7.210;2022-08-02T12:53:54;100894.19;;;27.37;38.87
12636;BME280;6383;50.830;7.210;2022-08-02T12:56:36;100892.19;;;27.38;38.90
12636;BME280;6383;50.830;7.210;2022-08-02T12:59:05;100892.19;;;27.42;39.00
12636;BME280;6383;50.830;7.210;2022-08-02T13:01:33;100887.78;;;27.44;38.35
12636;BME280;6383;50.830;7.210;2022-08-02T13:04:02;100887.34;;;27.46;38.77
12636;BME280;6383;50.830;7.210;2022-08-02T13:06:31;100887.72;;;27.48;38.39
12636;BME280;6383;50.830;7.210;2022-08-02T13:09:09;100879.75;;;27.50;37.62
12636;BME280;6383;50.830;7.210;2022-08-02T13:11:39;100874.16;;;27.50;38.31
12636;BME280;6383;50.830;7.210;2022-08-02T13:14:08;100868.56;;;27.50;38.05
12636;BME280;6383;50.830;7.210;2022-08-02T13:16:37;100872.16;;;27.50;38.25
12636;BME280;6383;50.830;7.210;2022-08-02T13:19:07;100864.94;;;27.53;38.35
12636;BME280;6383;50.830;7.210;2022-08-02T13:21:36;100864.13;;;27.56;39.47
12636;BME280;6383;50.830;7.210;2022-08-02T13:24:07;100868.16;;;27.58;40.12
12636;BME280;6383;50.830;7.210;2022-08-02T13:26:37;100864.50;;;27.61;39.39
12636;BME280;6383;50.830;7.210;2022-08-02T13:29:07;100861.69;;;27.65;39.23
12636;BME280;6383;50.830;7.210;2022-08-02T13:31:36;100856.09;;;27.68;39.21